createdAt,value
2022-10-29T00:02:06.116Z,7.52
2022-10-29T00:04:32.818Z,7.37
2022-10-29T00:06:59.540Z,7.24
2022-10-29T00:09:26.094Z,7.28
2022-10-29T00:11:52.750Z,7.13
2022-10-29T00:14:19.376Z,7.17
2022-10-29T00:16:45.913Z,7.27
2022-10-29T00:19:12.470Z,7.25
2022-10-29T00:21:40.457Z,7.41
2022-10-29T00:24:09.897Z,7.46
2022-10-29T00:26:36.539Z,7.55
2022-10-29T00:29:03.127Z,7.61
2022-10-29T00:31:31.028Z,7.61
2022-10-29T00:33:57.863Z,7.63
2022-10-29T00:36:27.049Z,7.64
2022-10-29T00:38:54.167Z,7.65
2022-10-29T00:41:27.091Z,7.54
2022-10-29T00:44:22.922Z,7.49
2022-10-29T00:46:56.452Z,7.45
2022-10-29T00:49:24.806Z,7.38
2022-10-29T00:51:51.740Z,7.34
2022-10-29T00:54:18.972Z,7.23
2022-10-29T00:56:51.799Z,7.13
2022-10-29T00:59:18.610Z,7.08
2022-10-29T01:01:48.406Z,7.01
2022-10-29T01:04:17.034Z,7.02
2022-10-29T01:06:44.134Z,7.01
2022-10-29T01:09:10.939Z,6.88
2022-10-29T01:12:20.837Z,6.91
2022-10-29T01:14:50.281Z,6.92
2022-10-29T01:17:28.221Z,6.86
2022-10-29T01:20:06.706Z,6.81
2022-10-29T01:22:45.927Z,6.79
2022-10-29T01:25:36.151Z,6.75
2022-10-29T01:28:39.569Z,6.76
2022-10-29T01:31:27.710Z,6.66
2022-10-29T01:34:21.815Z,6.65
2022-10-29T01:36:53.506Z,6.60
2022-10-29T01:39:29.115Z,6.61
2022-10-29T01:42:18.573Z,6.58
2022-10-29T01:45:09.365Z,6.53
2022-10-29T01:47:44.554Z,6.47
2022-10-29T01:50:16.026Z,6.49
2022-10-29T01:52:43.708Z,6.47
2022-10-29T01:55:10.483Z,6.43
2022-10-29T01:57:39.134Z,6.51
2022-10-29T02:00:14.595Z,6.45
2022-10-29T02:03:18.632Z,6.46
2022-10-29T02:05:58.896Z,6.38
2022-10-29T02:08:47.066Z,6.32
2022-10-29T02:11:27.684Z,6.37
2022-10-29T02:14:03.977Z,6.42
2022-10-29T02:16:31.747Z,6.30
2022-10-29T02:18:59.560Z,6.29
2022-10-29T02:21:26.475Z,6.11
2022-10-29T02:23:53.299Z,6.16
2022-10-29T02:26:19.998Z,6.23
2022-10-29T02:28:46.655Z,6.21
2022-10-29T02:31:13.295Z,6.22
2022-10-29T02:33:40.039Z,6.19
2022-10-29T02:36:07.124Z,6.20
2022-10-29T02:38:33.775Z,6.22
2022-10-29T02:41:00.392Z,6.18
2022-10-29T02:43:26.999Z,6.16
2022-10-29T02:46:12.022Z,6.24
2022-10-29T02:48:38.855Z,6.16
2022-10-29T02:51:05.587Z,6.12
2022-10-29T02:53:32.220Z,6.12
2022-10-29T02:55:59.003Z,6.09
2022-10-29T02:58:25.611Z,6.14
2022-10-29T03:00:53.206Z,5.90
2022-10-29T03:03:19.812Z,5.95
2022-10-29T03:05:49.019Z,6.03
2022-10-29T03:08:16.072Z,5.91
2022-10-29T03:10:42.779Z,5.93
2022-10-29T03:13:09.678Z,5.90
2022-10-29T03:15:36.892Z,5.91
2022-10-29T03:18:04.674Z,5.87
2022-10-29T03:20:31.301Z,5.86
2022-10-29T03:22:57.897Z,5.84
2022-10-29T03:25:24.468Z,5.80
2022-10-29T03:27:51.083Z,5.68
2022-10-29T03:30:17.966Z,5.72
2022-10-29T03:32:46.338Z,5.70
2022-10-29T03:35:14.712Z,5.69
2022-10-29T03:37:41.844Z,5.61
2022-10-29T03:40:09.472Z,5.59
2022-10-29T03:42:37.636Z,5.67
2022-10-29T03:45:04.390Z,5.64
2022-10-29T03:47:33.127Z,5.58
2022-10-29T03:49:59.674Z,5.60
2022-10-29T03:52:26.258Z,5.57
2022-10-29T03:54:52.840Z,5.59
2022-10-29T03:57:19.782Z,5.57
2022-10-29T03:59:49.893Z,5.52
2022-10-29T04:02:19.162Z,5.44
2022-10-29T04:04:46.007Z,5.51
2022-10-29T04:07:12.650Z,5.44
2022-10-29T04:09:39.306Z,5.42
2022-10-29T04:12:06.521Z,5.33
2022-10-29T04:14:33.159Z,5.13
2022-10-29T04:16:59.987Z,5.03
2022-10-29T04:19:26.953Z,4.95
2022-10-29T04:32:40.929Z,4.48
2022-10-29T04:35:07.968Z,4.55
2022-10-29T04:37:34.556Z,4.45
2022-10-29T04:40:01.112Z,4.40
2022-10-29T04:42:27.667Z,4.34
2022-10-29T04:44:55.593Z,4.24
2022-10-29T04:47:22.219Z,4.24
2022-10-29T04:49:48.839Z,4.28
2022-10-29T04:52:15.540Z,4.35
2022-10-29T04:54:42.209Z,4.29
2022-10-29T04:57:09.014Z,4.38
2022-10-29T04:59:35.548Z,4.38
2022-10-29T05:02:02.135Z,4.45
2022-10-29T05:04:29.556Z,4.50
2022-10-29T05:06:56.129Z,4.62
2022-10-29T05:09:24.792Z,4.77
2022-10-29T05:11:51.395Z,4.93
2022-10-29T05:14:17.978Z,5.19
2022-10-29T05:16:45.017Z,5.53
2022-10-29T05:19:11.615Z,5.97
2022-10-29T05:21:38.188Z,6.54
2022-10-29T05:24:04.908Z,6.98
2022-10-29T05:26:34.973Z,7.85
2022-10-29T05:29:01.666Z,8.56
2022-10-29T05:31:28.266Z,8.88
2022-10-29T05:33:55.995Z,9.27
2022-10-29T05:36:22.985Z,9.72
2022-10-29T05:38:49.646Z,10.28
2022-10-29T05:41:17.085Z,10.35
2022-10-29T05:43:43.721Z,10.65
2022-10-29T05:46:10.332Z,11.08
2022-10-29T05:48:36.876Z,11.37
2022-10-29T05:51:04.480Z,11.80
2022-10-29T05:53:31.052Z,12.29
2022-10-29T05:55:59.459Z,12.52
2022-10-29T05:58:26.121Z,12.93
2022-10-29T06:00:52.667Z,13.00
2022-10-29T06:03:21.534Z,12.84
2022-10-29T06:05:49.640Z,12.90
2022-10-29T06:08:17.170Z,12.34
2022-10-29T06:10:43.852Z,12.18
2022-10-29T06:13:16.483Z,11.42
2022-10-29T06:15:43.117Z,10.88
2022-10-29T06:18:09.761Z,10.64
2022-10-29T06:20:37.757Z,10.10
2022-10-29T06:23:04.849Z,9.85
2022-10-29T06:25:32.119Z,9.22
2022-10-29T06:28:03.852Z,9.21
2022-10-29T06:30:31.851Z,9.13
2022-10-29T06:32:59.174Z,9.01
2022-10-29T06:35:26.523Z,8.69
2022-10-29T06:37:53.283Z,8.53
2022-10-29T06:40:20.369Z,8.66
2022-10-29T06:42:46.928Z,8.61
2022-10-29T06:45:13.924Z,8.74
2022-10-29T06:47:45.155Z,8.87
2022-10-29T06:50:13.513Z,9.10
2022-10-29T06:52:40.119Z,9.05
2022-10-29T06:55:07.921Z,8.98
2022-10-29T06:57:34.983Z,8.98
2022-10-29T07:00:05.661Z,9.13
2022-10-29T07:02:35.479Z,9.18
2022-10-29T07:05:02.180Z,9.12
2022-10-29T07:07:29.291Z,9.20
2022-10-29T07:09:55.869Z,9.12
2022-10-29T07:12:22.417Z,9.30
2022-10-29T07:14:49.090Z,9.44
2022-10-29T07:17:15.685Z,9.54
2022-10-29T07:19:42.293Z,9.37
2022-10-29T07:22:08.866Z,9.38
2022-10-29T07:24:35.414Z,9.67
2022-10-29T07:27:02.152Z,9.95
2022-10-29T07:29:28.919Z,9.79
2022-10-29T07:31:55.534Z,9.74
2022-10-29T07:34:22.105Z,10.05
2022-10-29T07:36:48.708Z,10.28
2022-10-29T07:39:15.335Z,10.18
2022-10-29T07:41:41.871Z,10.48
2022-10-29T07:44:08.571Z,10.61
2022-10-29T07:46:35.152Z,10.65
2022-10-29T07:49:01.891Z,10.92
2022-10-29T07:51:28.548Z,11.05
2022-10-29T07:53:55.109Z,10.97
2022-10-29T07:56:21.710Z,11.02
2022-10-29T07:58:48.299Z,11.24
2022-10-29T08:01:15.006Z,11.36
2022-10-29T08:03:41.747Z,11.43
2022-10-29T08:06:08.321Z,11.55
2022-10-29T08:08:34.965Z,11.68
2022-10-29T08:11:02.725Z,11.91
2022-10-29T08:13:29.808Z,12.14
2022-10-29T08:15:56.709Z,12.07
2022-10-29T08:18:23.274Z,12.42
2022-10-29T08:20:49.825Z,12.73
2022-10-29T08:23:16.885Z,13.02
2022-10-29T08:25:44.491Z,13.05
2022-10-29T08:28:13.268Z,13.04
2022-10-29T08:30:40.872Z,13.37
2022-10-29T08:33:07.679Z,13.49
2022-10-29T08:35:34.492Z,13.87
2022-10-29T08:38:01.165Z,14.21
2022-10-29T08:40:46.497Z,14.45
2022-10-29T08:43:33.114Z,14.76
2022-10-29T08:45:59.733Z,14.89
2022-10-29T08:48:48.014Z,14.71
2022-10-29T08:51:22.313Z,15.11
2022-10-29T08:54:17.299Z,15.41
2022-10-29T08:56:48.462Z,15.58
2022-10-29T08:59:21.855Z,15.71
2022-10-29T09:01:49.230Z,15.87
2022-10-29T09:04:22.583Z,15.91
2022-10-29T09:07:19.899Z,15.93
2022-10-29T09:09:46.392Z,16.04
2022-10-29T09:12:55.125Z,16.04
2022-10-29T09:15:26.003Z,16.07
2022-10-29T09:18:30.120Z,16.17
2022-10-29T09:21:14.008Z,16.31
2022-10-29T09:23:54.055Z,16.44
2022-10-29T09:26:40.781Z,16.81
2022-10-29T09:29:25.057Z,17.24
2022-10-29T09:31:56.629Z,17.24
2022-10-29T09:34:36.696Z,17.27
2022-10-29T09:37:13.463Z,17.16
2022-10-29T09:39:42.150Z,17.39
2022-10-29T09:42:12.230Z,17.47
2022-10-29T09:44:48.160Z,17.64
2022-10-29T09:47:45.167Z,17.61
2022-10-29T09:50:23.930Z,17.79
2022-10-29T09:52:50.650Z,17.80
2022-10-29T09:55:38.605Z,17.79
2022-10-29T09:58:06.720Z,17.96
2022-10-29T10:00:34.333Z,18.25
2022-10-29T10:03:13.936Z,18.39
2022-10-29T10:06:07.665Z,18.61
2022-10-29T10:08:35.690Z,18.95
2022-10-29T10:11:16.251Z,19.22
2022-10-29T10:13:57.816Z,19.16
2022-10-29T10:16:27.598Z,19.32
2022-10-29T10:18:54.419Z,19.44
2022-10-29T10:21:25.467Z,19.39
2022-10-29T10:23:54.196Z,19.49
2022-10-29T10:26:43.502Z,19.72
2022-10-29T10:29:19.242Z,19.62
2022-10-29T10:31:47.888Z,19.34
2022-10-29T10:34:19.259Z,19.61
2022-10-29T10:37:02.116Z,19.75
2022-10-29T10:39:31.562Z,19.87
2022-10-29T10:42:05.356Z,19.84
2022-10-29T10:44:33.025Z,19.86
2022-10-29T10:47:06.747Z,19.76
2022-10-29T10:49:36.452Z,19.88
2022-10-29T10:52:16.240Z,19.88
2022-10-29T10:55:00.639Z,19.76
2022-10-29T10:57:32.575Z,19.81
2022-10-29T10:59:59.131Z,20.15
2022-10-29T11:03:00.087Z,20.07
2022-10-29T11:05:35.619Z,20.52
2022-10-29T11:08:19.733Z,20.91
2022-10-29T11:10:54.627Z,21.16
2022-10-29T11:13:23.415Z,21.35
2022-10-29T11:15:58.528Z,21.22
2022-10-29T11:18:38.085Z,20.99
2022-10-29T11:21:19.451Z,21.46
2022-10-29T11:24:19.772Z,21.73
2022-10-29T11:26:55.734Z,21.71
2022-10-29T11:29:29.379Z,21.19
2022-10-29T11:32:13.821Z,21.14
2022-10-29T11:34:47.695Z,21.11
2022-10-29T11:37:27.667Z,21.19
2022-10-29T11:39:57.335Z,21.06
2022-10-29T11:42:24.911Z,21.05
2022-10-29T11:44:51.923Z,21.27
2022-10-29T11:47:31.949Z,21.28
2022-10-29T11:50:04.592Z,21.62
2022-10-29T11:52:39.789Z,21.63
2022-10-29T11:55:38.213Z,21.83
2022-10-29T11:58:11.611Z,21.51
2022-10-29T12:00:58.460Z,21.08
2022-10-29T12:03:39.531Z,21.22
2022-10-29T12:06:16.745Z,20.88
2022-10-29T12:08:55.382Z,20.77
2022-10-29T12:11:43.306Z,20.98
2022-10-29T12:14:20.841Z,20.96
2022-10-29T12:16:50.220Z,21.11
2022-10-29T12:19:31.441Z,20.79
2022-10-29T12:22:18.080Z,21.11
2022-10-29T12:25:21.038Z,21.50
2022-10-29T12:27:56.580Z,21.88
2022-10-29T12:30:24.529Z,22.07
2022-10-29T12:33:19.915Z,22.33
2022-10-29T12:35:49.480Z,22.35
2022-10-29T12:38:25.896Z,21.70
2022-10-29T12:41:02.853Z,21.74
2022-10-29T12:43:31.727Z,21.99
2022-10-29T12:46:21.550Z,22.14
2022-10-29T12:49:16.365Z,22.03
2022-10-29T12:51:54.486Z,22.07
2022-10-29T12:54:26.871Z,22.20
2022-10-29T12:56:53.961Z,22.28
2022-10-29T12:59:32.468Z,22.26
2022-10-29T13:02:19.026Z,22.16
2022-10-29T13:05:10.684Z,22.28
2022-10-29T13:07:38.795Z,22.36
2022-10-29T13:10:23.649Z,22.33
2022-10-29T13:12:59.347Z,22.31
2022-10-29T13:15:45.285Z,22.44
2022-10-29T13:18:44.941Z,22.67
2022-10-29T13:21:11.628Z,22.75
2022-10-29T13:23:38.368Z,22.53
2022-10-29T13:26:09.137Z,22.42
2022-10-29T13:28:35.640Z,22.32
2022-10-29T13:31:02.120Z,22.12
2022-10-29T13:33:49.342Z,22.12
2022-10-29T13:36:15.877Z,22.06
2022-10-29T13:39:04.923Z,22.04
2022-10-29T13:41:42.958Z,22.24
2022-10-29T13:44:25.174Z,22.28
2022-10-29T13:47:15.043Z,22.38
2022-10-29T13:49:45.203Z,22.41
2022-10-29T13:52:16.858Z,22.12
2022-10-29T13:55:01.946Z,22.08
2022-10-29T13:57:51.895Z,21.72
2022-10-29T14:00:20.909Z,21.74
2022-10-29T14:03:02.290Z,21.64
2022-10-29T14:05:34.045Z,21.57
2022-10-29T14:08:15.541Z,21.70
2022-10-29T14:10:42.038Z,21.48
2022-10-29T14:13:14.329Z,21.50
2022-10-29T14:16:20.420Z,21.42
2022-10-29T14:18:49.129Z,21.03
2022-10-29T14:21:23.995Z,21.25
2022-10-29T14:23:58.030Z,21.39
2022-10-29T14:26:25.621Z,21.54
2022-10-29T14:28:53.118Z,21.49
2022-10-29T14:31:25.316Z,21.48
2022-10-29T14:33:56.385Z,21.66
2022-10-29T14:36:29.883Z,21.99
2022-10-29T14:38:56.544Z,22.42
2022-10-29T14:41:24.894Z,22.63
2022-10-29T14:43:56.225Z,23.03
2022-10-29T14:46:26.663Z,26.14
2022-10-29T14:49:05.185Z,27.21
2022-10-29T14:51:40.412Z,25.40
2022-10-29T14:54:09.217Z,24.03
2022-10-29T14:56:40.304Z,23.26
2022-10-29T14:59:19.333Z,22.61
2022-10-29T15:01:57.039Z,22.20
2022-10-29T15:04:29.730Z,21.45
2022-10-29T15:07:14.721Z,20.79
2022-10-29T15:09:42.639Z,20.41
2022-10-29T15:12:21.031Z,20.27
2022-10-29T15:14:49.801Z,20.03
2022-10-29T15:17:26.181Z,19.85
2022-10-29T15:19:59.778Z,19.72
2022-10-29T15:22:38.142Z,19.51
2022-10-29T15:25:08.680Z,19.32
2022-10-29T15:27:36.414Z,19.14
2022-10-29T15:30:04.455Z,19.00
2022-10-29T15:32:31.629Z,18.87
2022-10-29T15:34:59.792Z,18.74
2022-10-29T15:37:42.231Z,18.59
2022-10-29T15:40:12.548Z,18.44
2022-10-29T15:42:40.226Z,18.32
2022-10-29T15:45:16.346Z,18.20
2022-10-29T15:47:48.363Z,18.07
2022-10-29T15:50:19.527Z,17.98
2022-10-29T15:52:52.346Z,17.84
2022-10-29T15:55:26.226Z,17.80
2022-10-29T15:57:56.376Z,17.79
2022-10-29T16:00:23.976Z,17.73
2022-10-29T16:02:51.407Z,17.31
2022-10-29T16:05:18.891Z,17.14
2022-10-29T16:07:47.301Z,16.80
2022-10-29T16:10:20.331Z,16.28
2022-10-29T16:12:49.452Z,15.95
2022-10-29T16:15:18.862Z,15.68
2022-10-29T16:17:46.397Z,15.66
2022-10-29T16:20:18.319Z,15.46
2022-10-29T16:22:46.720Z,15.29
2022-10-29T16:25:25.496Z,15.27
2022-10-29T16:27:52.880Z,15.21
2022-10-29T16:30:20.979Z,15.10
2022-10-29T16:32:55.916Z,15.24
2022-10-29T16:35:25.633Z,15.41
2022-10-29T16:37:53.529Z,15.48
2022-10-29T16:40:22.329Z,15.46
2022-10-29T16:42:48.959Z,15.48
2022-10-29T16:45:24.843Z,14.81
2022-10-29T16:47:52.317Z,15.24
2022-10-29T16:50:38.829Z,15.19
2022-10-29T16:53:08.292Z,15.19
2022-10-29T16:55:36.949Z,15.12
2022-10-29T16:58:04.199Z,15.10
2022-10-29T17:00:36.377Z,15.05
2022-10-29T17:03:06.849Z,15.06
2022-10-29T17:05:39.860Z,15.00
2022-10-29T17:08:07.004Z,14.89
2022-10-29T17:10:34.550Z,14.81
2022-10-29T17:13:01.283Z,14.68
2022-10-29T17:15:28.365Z,14.65
2022-10-29T17:17:54.927Z,14.59
2022-10-29T17:20:21.631Z,14.52
2022-10-29T17:22:48.217Z,14.48
2022-10-29T17:25:14.860Z,14.41
2022-10-29T17:27:41.958Z,14.41
2022-10-29T17:30:10.827Z,14.32
2022-10-29T17:32:37.531Z,14.28
2022-10-29T17:35:04.524Z,14.28
2022-10-29T17:37:31.462Z,14.11
2022-10-29T17:40:02.965Z,14.11
2022-10-29T17:42:33.732Z,14.13
2022-10-29T17:45:00.289Z,14.08
2022-10-29T17:47:26.972Z,14.13
2022-10-29T17:49:53.715Z,14.05
2022-10-29T17:52:20.352Z,13.96
2022-10-29T17:54:47.058Z,13.92
2022-10-29T17:57:13.708Z,13.79
2022-10-29T17:59:40.437Z,13.86
2022-10-29T18:02:11.076Z,13.87
2022-10-29T18:04:37.937Z,13.90
2022-10-29T18:07:04.510Z,13.85
2022-10-29T18:09:31.186Z,13.79
2022-10-29T18:11:57.938Z,13.79
2022-10-29T18:14:24.727Z,13.75
2022-10-29T18:16:51.473Z,13.67
2022-10-29T18:19:18.198Z,13.61
2022-10-29T18:21:44.997Z,13.56
2022-10-29T18:24:11.647Z,13.44
2022-10-29T18:26:38.344Z,13.44
2022-10-29T18:29:08.488Z,13.36
2022-10-29T18:31:36.466Z,13.44
2022-10-29T18:34:06.591Z,13.36
2022-10-29T18:36:35.722Z,13.39
2022-10-29T18:39:04.047Z,13.31
2022-10-29T18:41:31.248Z,13.30
2022-10-29T18:43:59.114Z,13.33
2022-10-29T18:46:26.294Z,13.40
2022-10-29T18:48:53.151Z,13.35
2022-10-29T18:51:25.739Z,13.36
2022-10-29T18:53:54.536Z,13.31
2022-10-29T18:56:22.713Z,13.28
2022-10-29T18:58:49.773Z,13.16
2022-10-29T19:01:22.806Z,12.91
2022-10-29T19:03:51.693Z,12.88
2022-10-29T19:06:19.852Z,12.71
2022-10-29T19:08:47.327Z,12.72
2022-10-29T19:11:16.907Z,12.64
2022-10-29T19:13:43.920Z,12.53
2022-10-29T19:16:14.071Z,12.60
2022-10-29T19:18:41.522Z,12.46
2022-10-29T19:21:17.325Z,12.78
2022-10-29T19:23:46.352Z,12.83
2022-10-29T19:26:15.135Z,12.76
2022-10-29T19:28:43.194Z,12.59
2022-10-29T19:31:17.850Z,12.51
2022-10-29T19:33:52.380Z,12.47
2022-10-29T19:36:20.034Z,12.43
2022-10-29T19:38:47.273Z,12.32
2022-10-29T19:41:15.325Z,12.11
2022-10-29T19:43:42.127Z,11.97
2022-10-29T19:46:10.308Z,11.89
2022-10-29T19:48:36.949Z,11.74
2022-10-29T19:51:03.927Z,11.65
2022-10-29T19:53:31.411Z,11.51
2022-10-29T19:55:58.501Z,11.41
2022-10-29T19:58:27.703Z,11.33
2022-10-29T20:00:55.355Z,11.38
2022-10-29T20:03:22.073Z,11.39
2022-10-29T20:05:49.549Z,11.41
2022-10-29T20:08:16.588Z,11.40
2022-10-29T20:10:43.656Z,11.45
2022-10-29T20:13:10.408Z,11.41
2022-10-29T20:15:38.780Z,11.33
2022-10-29T20:18:05.719Z,11.48
2022-10-29T20:20:32.383Z,11.46
2022-10-29T20:23:00.316Z,11.44
2022-10-29T20:25:27.843Z,11.27
2022-10-29T20:27:54.508Z,11.26
2022-10-29T20:30:22.016Z,11.15
2022-10-29T20:32:49.178Z,11.01
2022-10-29T20:35:16.979Z,10.94
2022-10-29T20:37:43.649Z,10.90
2022-10-29T20:40:11.160Z,10.89
2022-10-29T20:42:37.776Z,10.80
2022-10-29T20:45:05.129Z,10.82
2022-10-29T20:47:31.700Z,10.70
2022-10-29T20:49:58.448Z,10.75
2022-10-29T20:52:25.090Z,10.74
2022-10-29T20:54:51.649Z,10.76
2022-10-29T20:57:18.222Z,10.75
2022-10-29T20:59:45.386Z,10.72
2022-10-29T21:02:12.573Z,10.77
2022-10-29T21:04:39.405Z,10.64
2022-10-29T21:07:07.767Z,10.49
2022-10-29T21:09:34.620Z,10.43
2022-10-29T21:12:01.208Z,10.36
2022-10-29T21:14:29.606Z,10.26
2022-10-29T21:16:56.353Z,10.17
2022-10-29T21:19:23.086Z,10.12
2022-10-29T21:21:49.685Z,10.13
2022-10-29T21:24:17.826Z,10.05
2022-10-29T21:26:44.414Z,9.96
2022-10-29T21:29:10.992Z,9.96
2022-10-29T21:31:37.777Z,9.91
2022-10-29T21:34:04.378Z,9.88
2022-10-29T21:36:30.930Z,9.89
2022-10-29T21:38:57.554Z,9.89
2022-10-29T21:41:24.108Z,9.85
2022-10-29T21:43:50.935Z,9.85
2022-10-29T21:46:17.561Z,9.79
2022-10-29T21:48:44.125Z,9.71
2022-10-29T21:51:12.093Z,9.59
2022-10-29T21:53:38.625Z,9.55
2022-10-29T21:56:07.923Z,9.49
2022-10-29T21:58:34.761Z,9.48
2022-10-29T22:01:10.344Z,9.39
2022-10-29T22:03:38.716Z,9.37
2022-10-29T22:06:19.756Z,9.15
2022-10-29T22:08:47.660Z,9.17
2022-10-29T22:11:15.420Z,9.14
2022-10-29T22:13:42.005Z,9.12
2022-10-29T22:16:09.853Z,9.14
2022-10-29T22:18:37.696Z,9.05
2022-10-29T22:21:07.410Z,9.00
2022-10-29T22:23:34.185Z,8.98
2022-10-29T22:26:00.859Z,8.98
2022-10-29T22:28:27.575Z,9.03
2022-10-29T22:31:01.678Z,9.11
2022-10-29T22:33:29.052Z,9.12
2022-10-29T22:35:55.825Z,8.97
2022-10-29T22:38:22.420Z,8.86
2022-10-29T22:40:48.984Z,8.89
2022-10-29T22:43:15.689Z,8.96
2022-10-29T22:45:44.221Z,8.97
2022-10-29T22:48:10.753Z,8.80
2022-10-29T22:50:37.344Z,8.88
2022-10-29T22:53:03.947Z,8.90
2022-10-29T22:55:30.560Z,8.80
2022-10-29T22:57:57.126Z,8.90
2022-10-29T23:00:23.790Z,8.99
2022-10-29T23:02:50.428Z,8.96
2022-10-29T23:05:17.041Z,8.91
2022-10-29T23:07:43.594Z,8.97
2022-10-29T23:10:10.236Z,8.94
2022-10-29T23:12:38.318Z,8.96
2022-10-29T23:15:05.978Z,8.93
2022-10-29T23:17:32.648Z,8.96
2022-10-29T23:19:59.361Z,8.95
2022-10-29T23:22:27.641Z,8.90
2022-10-29T23:24:54.451Z,8.88
2022-10-29T23:27:21.057Z,8.69
2022-10-29T23:29:47.658Z,8.59
2022-10-29T23:32:14.224Z,8.53
2022-10-29T23:34:40.801Z,8.35
2022-10-29T23:37:09.912Z,8.38
2022-10-29T23:39:37.079Z,8.31
2022-10-29T23:42:03.867Z,8.36
2022-10-29T23:44:30.490Z,8.32
2022-10-29T23:46:57.068Z,8.26
2022-10-29T23:49:23.707Z,8.24
2022-10-29T23:51:50.313Z,8.21
2022-10-29T23:54:16.886Z,8.34
2022-10-29T23:56:43.486Z,8.31
2022-10-29T23:59:10.084Z,8.29
